Time;durP1;ratioP1;P1;durP2;ratioP2;P2;SDS_P1;SDS_P2;PMS_P1;PMS_P2;Temp;Humidity;BMP_temperature;BMP_pressure;BME280_temperature;BME280_humidity;BME280_pressure;Samples;Min_cycle;Max_cycle;Signal;HPM_P1;HPM_P2
2022/02/24 00:01:58;;;;;;;5.38;2.15;;;;;;;;;;5010661;28;20384;-46
2022/02/24 00:04:24;;;;;;;5.88;2.17;;;;;;;;;;5009901;28;20050;-47
2022/02/24 00:06:50;;;;;;;7.57;2.20;;;;;;;;;;5010228;28;20026;-44
2022/02/24 00:09:16;;;;;;;7.82;2.30;;;;;;;;;;5010576;28;20029;-48
2022/02/24 00:11:42;;;;;;;5.90;2.35;;;;;;;;;;5010543;28;20026;-47
2022/02/24 00:14:08;;;;;;;6.57;2.45;;;;;;;;;;5010345;28;20037;-47
2022/02/24 00:16:34;;;;;;;7.07;2.20;;;;;;;;;;5009958;28;20109;-49
2022/02/24 00:19:00;;;;;;;6.20;2.20;;;;;;;;;;5010261;28;20041;-48
2022/02/24 00:21:26;;;;;;;6.25;2.05;;;;;;;;;;5009949;28;20057;-50
2022/02/24 00:23:52;;;;;;;6.32;2.33;;;;;;;;;;5010118;28;20431;-48
2022/02/24 00:26:18;;;;;;;5.88;1.95;;;;;;;;;;5009609;28;20579;-46
2022/02/24 00:28:44;;;;;;;5.95;2.58;;;;;;;;;;5010293;28;20041;-45
2022/02/24 00:31:11;;;;;;;6.82;1.88;;;;;;;;;;5010107;28;20026;-50
2022/02/24 00:33:38;;;;;;;6.72;2.08;;;;;;;;;;5009899;28;20026;-51
2022/02/24 00:36:06;;;;;;;7.18;2.58;;;;;;;;;;5009862;28;20116;-47
2022/02/24 00:38:32;;;;;;;6.60;2.13;;;;;;;;;;5009285;28;20034;-47
2022/02/24 00:40:58;;;;;;;7.22;2.00;;;;;;;;;;5009638;28;20072;-46
2022/02/24 00:43:24;;;;;;;4.90;1.85;;;;;;;;;;5008550;28;20018;-47
2022/02/24 00:45:50;;;;;;;8.27;3.03;;;;;;;;;;5009754;28;20026;-47
2022/02/24 00:48:16;;;;;;;4.97;1.83;;;;;;;;;;5008960;28;20337;-49
2022/02/24 00:50:44;;;;;;;6.97;2.10;;;;;;;;;;5010147;28;20479;-47
2022/02/24 00:53:10;;;;;;;5.00;1.67;;;;;;;;;;5009665;28;20480;-48
2022/02/24 00:55:37;;;;;;;5.80;2.28;;;;;;;;;;5009207;28;20018;-52
2022/02/24 00:58:03;;;;;;;4.70;2.15;;;;;;;;;;5009607;28;20022;-46
2022/02/24 01:00:30;;;;;;;4.30;1.90;;;;;;;;;;5008744;28;20057;-46
2022/02/24 01:02:56;;;;;;;5.25;1.90;;;;;;;;;;5009427;28;20128;-47
2022/02/24 01:05:22;;;;;;;5.75;2.10;;;;;;;;;;5008624;28;20080;-50
2022/02/24 01:07:49;;;;;;;6.78;1.85;;;;;;;;;;5009216;28;20026;-49
2022/02/24 01:10:15;;;;;;;5.47;2.05;;;;;;;;;;5009461;28;20028;-49
2022/02/24 01:12:41;;;;;;;6.05;2.40;;;;;;;;;;5009158;28;20141;-49
2022/02/24 01:15:08;;;;;;;6.25;2.42;;;;;;;;;;5009541;28;20149;-47
2022/02/24 01:17:35;;;;;;;6.05;2.42;;;;;;;;;;5009348;28;20025;-46
2022/02/24 01:20:03;;;;;;;6.90;1.95;;;;;;;;;;5008895;28;20041;-52
2022/02/24 01:22:29;;;;;;;5.97;2.00;;;;;;;;;;5009416;28;20113;-53
2022/02/24 01:24:55;;;;;;;5.25;1.83;;;;;;;;;;5008904;28;20105;-51
2022/02/24 01:27:21;;;;;;;5.97;1.73;;;;;;;;;;5009028;28;20029;-49
2022/02/24 01:29:47;;;;;;;6.22;2.47;;;;;;;;;;5008482;28;20377;-50
2022/02/24 01:32:13;;;;;;;6.28;2.13;;;;;;;;;;5008968;28;20033;-48
2022/02/24 01:34:39;;;;;;;4.55;1.50;;;;;;;;;;5008955;28;20559;-48
2022/02/24 01:37:05;;;;;;;4.78;1.60;;;;;;;;;;5009024;28;20057;-49
2022/02/24 01:39:31;;;;;;;4.72;1.80;;;;;;;;;;5008684;28;20038;-49
2022/02/24 01:41:57;;;;;;;6.47;1.85;;;;;;;;;;5008770;28;20024;-50
2022/02/24 01:44:24;;;;;;;5.18;1.80;;;;;;;;;;5008376;28;20060;-50
2022/02/24 01:46:50;;;;;;;6.00;1.80;;;;;;;;;;5009073;28;20022;-46
2022/02/24 01:49:18;;;;;;;7.45;2.50;;;;;;;;;;5008403;28;20377;-47
2022/02/24 01:51:44;;;;;;;4.65;2.10;;;;;;;;;;5008176;28;20052;-52
2022/02/24 01:54:10;;;;;;;5.25;2.00;;;;;;;;;;5008767;28;20121;-49
2022/02/24 01:56:36;;;;;;;6.45;2.33;;;;;;;;;;5008794;28;20141;-47
2022/02/24 01:59:03;;;;;;;5.07;1.92;;;;;;;;;;5009150;28;20124;-49
2022/02/24 02:01:29;;;;;;;3.67;1.50;;;;;;;;;;5008555;28;20058;-49
2022/02/24 02:03:56;;;;;;;6.05;1.98;;;;;;;;;;5007978;28;20108;-48
2022/02/24 02:06:22;;;;;;;4.75;1.70;;;;;;;;;;5008247;28;20109;-47
2022/02/24 02:08:49;;;;;;;6.75;2.25;;;;;;;;;;5008815;28;20084;-48
2022/02/24 02:11:15;;;;;;;3.97;1.60;;;;;;;;;;5008074;28;20068;-52
2022/02/24 02:13:41;;;;;;;4.03;1.80;;;;;;;;;;5008496;28;20066;-53
2022/02/24 02:16:07;;;;;;;6.22;2.15;;;;;;;;;;5008056;28;20103;-50
2022/02/24 02:18:34;;;;;;;3.58;1.55;;;;;;;;;;5011276;28;20133;-48
2022/02/24 02:21:00;;;;;;;7.32;2.40;;;;;;;;;;5012194;28;20109;-50
2022/02/24 02:23:26;;;;;;;5.35;1.80;;;;;;;;;;5002564;28;20084;-50
2022/02/24 02:25:52;;;;;;;4.40;1.58;;;;;;;;;;5006627;28;20022;-48
2022/02/24 02:28:18;;;;;;;5.60;1.98;;;;;;;;;;5011862;28;20038;-50
2022/02/24 02:30:44;;;;;;;4.72;1.85;;;;;;;;;;5011554;28;20911;-51
2022/02/24 02:33:10;;;;;;;5.65;2.08;;;;;;;;;;5011167;28;20136;-47
2022/02/24 02:35:37;;;;;;;6.80;1.77;;;;;;;;;;5011366;28;20101;-51
2022/02/24 02:38:06;;;;;;;7.13;2.22;;;;;;;;;;5011967;28;20045;-48
2022/02/24 02:40:37;;;;;;;4.60;2.30;;;;;;;;;;5011338;28;20037;-50
2022/02/24 02:43:10;;;;;;;7.28;2.08;;;;;;;;;;5011830;28;20112;-48
2022/02/24 02:45:37;;;;;;;5.55;1.92;;;;;;;;;;5012086;28;20033;-48
2022/02/24 02:48:04;;;;;;;4.45;1.85;;;;;;;;;;5011883;28;20105;-48
2022/02/24 02:50:31;;;;;;;5.95;1.92;;;;;;;;;;5011158;28;20022;-49
2022/02/24 02:52:57;;;;;;;6.75;2.10;;;;;;;;;;5011592;28;20109;-49
2022/02/24 02:55:23;;;;;;;5.28;1.73;;;;;;;;;;5011929;28;20104;-48
2022/02/24 02:57:49;;;;;;;3.67;1.45;;;;;;;;;;5011687;28;20026;-51
2022/02/24 03:00:16;;;;;;;5.93;1.95;;;;;;;;;;5011545;28;20049;-50
2022/02/24 03:02:42;;;;;;;4.63;1.50;;;;;;;;;;5011524;28;20080;-49
2022/02/24 03:05:09;;;;;;;5.10;1.75;;;;;;;;;;5011382;28;20033;-49
2022/02/24 03:07:35;;;;;;;5.72;1.77;;;;;;;;;;5010898;28;20124;-47
2022/02/24 03:10:02;;;;;;;5.22;1.65;;;;;;;;;;5011885;28;20500;-52
2022/02/24 03:12:28;;;;;;;5.40;1.80;;;;;;;;;;5011208;28;20022;-47
2022/02/24 03:14:54;;;;;;;6.97;2.38;;;;;;;;;;5011324;28;20037;-49
2022/02/24 03:17:22;;;;;;;5.95;2.15;;;;;;;;;;5010770;28;20030;-48
2022/02/24 03:19:48;;;;;;;5.00;1.90;;;;;;;;;;5011496;28;20948;-50
2022/02/24 03:22:14;;;;;;;7.07;2.45;;;;;;;;;;5010469;28;20101;-52
2022/02/24 03:24:40;;;;;;;4.53;2.00;;;;;;;;;;5011248;28;20117;-46
2022/02/24 03:27:06;;;;;;;5.00;1.67;;;;;;;;;;5011539;28;20054;-47
2022/02/24 03:29:33;;;;;;;6.47;2.10;;;;;;;;;;5010827;28;20034;-46
2022/02/24 03:32:00;;;;;;;6.15;2.28;;;;;;;;;;5011130;28;20445;-49
2022/02/24 03:34:26;;;;;;;7.53;1.90;;;;;;;;;;5010743;28;20120;-48
2022/02/24 03:36:52;;;;;;;4.75;1.90;;;;;;;;;;5010760;28;20066;-51
2022/02/24 03:39:18;;;;;;;4.90;1.92;;;;;;;;;;5010893;28;20072;-49
2022/02/24 03:41:44;;;;;;;4.70;1.73;;;;;;;;;;5010970;28;20061;-50
2022/02/24 03:44:10;;;;;;;6.60;2.00;;;;;;;;;;5010393;28;20029;-52
2022/02/24 03:46:37;;;;;;;5.47;1.85;;;;;;;;;;5011195;28;20033;-47
2022/02/24 03:49:03;;;;;;;4.78;1.90;;;;;;;;;;5011025;28;20105;-46
2022/02/24 03:51:29;;;;;;;4.88;1.90;;;;;;;;;;5010370;28;20785;-46
2022/02/24 03:53:55;;;;;;;3.95;1.65;;;;;;;;;;5010579;28;20476;-48
2022/02/24 03:56:21;;;;;;;4.35;1.60;;;;;;;;;;5010610;28;20099;-48
2022/02/24 03:58:47;;;;;;;3.63;1.50;;;;;;;;;;5010428;28;20042;-53
2022/02/24 04:01:14;;;;;;;5.63;1.80;;;;;;;;;;5010536;28;20072;-51
2022/02/24 04:03:41;;;;;;;5.72;2.63;;;;;;;;;;5010764;28;20084;-49
2022/02/24 04:06:07;;;;;;;5.20;2.10;;;;;;;;;;5010440;28;20421;-51
2022/02/24 04:08:33;;;;;;;5.65;2.00;;;;;;;;;;5010377;28;20147;-51
2022/02/24 04:11:00;;;;;;;4.13;1.70;;;;;;;;;;5010464;28;20102;-47
2022/02/24 04:13:26;;;;;;;5.38;2.22;;;;;;;;;;5010303;28;20026;-47
2022/02/24 04:15:52;;;;;;;4.95;1.80;;;;;;;;;;5010228;28;20448;-49
2022/02/24 04:18:18;;;;;;;6.05;1.92;;;;;;;;;;5009802;28;20124;-49
2022/02/24 04:20:45;;;;;;;4.60;1.80;;;;;;;;;;5010001;28;20034;-52
2022/02/24 04:23:11;;;;;;;6.60;1.75;;;;;;;;;;5010132;28;20109;-48
2022/02/24 04:25:37;;;;;;;7.63;1.85;;;;;;;;;;5009810;28;20057;-49
2022/02/24 04:28:03;;;;;;;4.53;1.52;;;;;;;;;;5010169;28;20088;-52
2022/02/24 04:30:30;;;;;;;6.55;1.88;;;;;;;;;;5009595;28;20125;-48
2022/02/24 04:32:56;;;;;;;7.40;2.20;;;;;;;;;;5010470;28;20107;-46
2022/02/24 04:35:22;;;;;;;4.20;2.20;;;;;;;;;;5009881;28;20029;-50
2022/02/24 04:37:48;;;;;;;5.60;1.75;;;;;;;;;;5009879;28;20076;-49
2022/02/24 04:40:15;;;;;;;3.63;1.75;;;;;;;;;;5009444;28;20112;-51
2022/02/24 04:42:41;;;;;;;6.78;1.55;;;;;;;;;;5009379;28;20134;-49
2022/02/24 04:45:08;;;;;;;3.65;1.35;;;;;;;;;;5009807;28;20040;-50
2022/02/24 04:47:34;;;;;;;5.00;1.67;;;;;;;;;;5009979;28;20034;-51
2022/02/24 04:50:00;;;;;;;5.28;1.95;;;;;;;;;;5010023;28;20018;-51
2022/02/24 04:52:27;;;;;;;5.43;1.70;;;;;;;;;;5009486;28;20033;-52
2022/02/24 04:54:53;;;;;;;4.95;1.55;;;;;;;;;;5009519;28;20440;-49
2022/02/24 04:57:19;;;;;;;3.08;1.40;;;;;;;;;;5009514;28;20104;-48
2022/02/24 04:59:45;;;;;;;6.78;2.75;;;;;;;;;;5009404;28;20072;-51
2022/02/24 05:02:11;;;;;;;4.57;1.70;;;;;;;;;;5009932;28;20435;-49
2022/02/24 05:04:37;;;;;;;4.68;1.50;;;;;;;;;;5009939;28;20029;-48
2022/02/24 05:07:03;;;;;;;7.28;1.55;;;;;;;;;;5009835;28;20040;-50
2022/02/24 05:09:29;;;;;;;6.07;1.67;;;;;;;;;;5009563;28;20109;-52
2022/02/24 05:11:55;;;;;;;3.80;1.55;;;;;;;;;;5009385;28;20524;-49
2022/02/24 05:14:21;;;;;;;5.43;1.63;;;;;;;;;;5009584;28;20966;-50
2022/02/24 05:16:48;;;;;;;4.80;1.60;;;;;;;;;;5009144;28;20201;-49
2022/02/24 05:19:13;;;;;;;5.45;1.73;;;;;;;;;;5008722;28;20092;-49
2022/02/24 05:21:40;;;;;;;3.78;1.52;;;;;;;;;;5008902;28;20384;-49
2022/02/24 05:24:06;;;;;;;4.68;1.42;;;;;;;;;;5008790;28;20109;-50
2022/02/24 05:26:32;;;;;;;6.25;2.00;;;;;;;;;;5009063;28;20029;-51
2022/02/24 05:28:58;;;;;;;8.85;1.90;;;;;;;;;;5008965;28;20109;-48
2022/02/24 05:31:24;;;;;;;4.53;1.73;;;;;;;;;;5009340;28;20453;-45
2022/02/24 05:33:51;;;;;;;4.22;1.80;;;;;;;;;;5008700;28;20137;-46
2022/02/24 05:36:17;;;;;;;5.82;1.63;;;;;;;;;;5008225;28;21263;-48
2022/02/24 05:38:43;;;;;;;10.25;2.05;;;;;;;;;;5009033;28;20033;-51
2022/02/24 05:41:09;;;;;;;10.02;2.17;;;;;;;;;;5008937;28;20034;-51
2022/02/24 05:43:35;;;;;;;7.95;1.95;;;;;;;;;;5008826;28;20071;-52
2022/02/24 05:46:01;;;;;;;6.90;1.70;;;;;;;;;;5008905;28;20656;-50
2022/02/24 05:48:27;;;;;;;4.90;1.90;;;;;;;;;;5008783;28;20121;-54
2022/02/24 05:50:53;;;;;;;7.10;2.38;;;;;;;;;;5008262;28;20617;-51
2022/02/24 05:53:19;;;;;;;5.22;1.90;;;;;;;;;;5007277;28;20425;-52
2022/02/24 05:55:45;;;;;;;6.03;2.00;;;;;;;;;;5008138;28;20084;-51
2022/02/24 05:58:11;;;;;;;6.50;2.13;;;;;;;;;;5008153;28;20365;-49
2022/02/24 06:00:37;;;;;;;7.57;2.42;;;;;;;;;;5008803;28;20144;-50
2022/02/24 06:03:03;;;;;;;6.18;2.30;;;;;;;;;;5007907;28;20049;-51
2022/02/24 06:05:29;;;;;;;7.10;2.15;;;;;;;;;;5008850;28;20633;-46
2022/02/24 06:07:55;;;;;;;6.30;2.22;;;;;;;;;;5008601;28;20017;-47
2022/02/24 06:10:21;;;;;;;10.23;2.22;;;;;;;;;;5008166;28;20037;-52
2022/02/24 06:12:47;;;;;;;7.32;2.38;;;;;;;;;;5008023;28;20092;-49
2022/02/24 06:15:14;;;;;;;8.13;2.70;;;;;;;;;;5007902;28;20040;-45
2022/02/24 06:17:40;;;;;;;9.57;2.10;;;;;;;;;;5008127;28;20037;-52
2022/02/24 06:20:06;;;;;;;11.48;2.25;;;;;;;;;;5008367;28;20042;-50
2022/02/24 06:22:33;;;;;;;15.10;2.58;;;;;;;;;;5008487;28;20117;-47
2022/02/24 06:24:59;;;;;;;13.27;3.00;;;;;;;;;;5008485;28;20164;-47
2022/02/24 06:27:25;;;;;;;10.25;1.73;;;;;;;;;;5007870;28;20069;-48
2022/02/24 06:29:51;;;;;;;8.55;2.22;;;;;;;;;;5008148;28;20435;-46
2022/02/24 06:32:17;;;;;;;11.85;2.22;;;;;;;;;;5009083;28;20112;-50
2022/02/24 06:34:44;;;;;;;11.95;2.30;;;;;;;;;;5007582;28;20117;-48
2022/02/24 06:37:10;;;;;;;11.48;3.03;;;;;;;;;;5008638;28;20034;-47
2022/02/24 06:39:36;;;;;;;10.18;2.20;;;;;;;;;;5007802;28;20044;-49
2022/02/24 06:42:02;;;;;;;13.60;2.88;;;;;;;;;;5007932;28;20064;-50
2022/02/24 06:44:30;;;;;;;10.00;1.90;;;;;;;;;;5007717;28;20164;-50
2022/02/24 06:46:57;;;;;;;7.85;1.88;;;;;;;;;;5008241;28;20056;-48
2022/02/24 06:49:23;;;;;;;6.68;1.70;;;;;;;;;;5007687;28;20476;-50
2022/02/24 06:51:50;;;;;;;8.60;2.30;;;;;;;;;;5008576;28;20116;-46
2022/02/24 06:54:16;;;;;;;8.73;1.90;;;;;;;;;;5007472;28;20500;-44
2022/02/24 06:56:42;;;;;;;8.02;2.00;;;;;;;;;;5007871;28;20026;-46
2022/02/24 06:59:08;;;;;;;6.47;1.98;;;;;;;;;;5008110;28;20042;-47
2022/02/24 07:01:34;;;;;;;9.20;2.10;;;;;;;;;;5007719;28;20034;-46
2022/02/24 07:04:00;;;;;;;11.32;2.13;;;;;;;;;;5010014;28;20046;-48
2022/02/24 07:06:26;;;;;;;7.25;1.80;;;;;;;;;;5011197;28;20551;-50
2022/02/24 07:08:53;;;;;;;4.82;1.88;;;;;;;;;;5011805;28;20480;-45
2022/02/24 07:11:19;;;;;;;14.35;2.10;;;;;;;;;;5011358;28;20399;-51
2022/02/24 07:13:45;;;;;;;9.90;2.13;;;;;;;;;;5011552;28;20037;-48
2022/02/24 07:16:11;;;;;;;7.07;2.47;;;;;;;;;;5011249;28;20448;-51
2022/02/24 07:18:37;;;;;;;5.70;1.50;;;;;;;;;;5012014;28;20451;-48
2022/02/24 07:21:03;;;;;;;11.93;1.75;;;;;;;;;;5011075;28;20202;-47
2022/02/24 07:23:29;;;;;;;11.02;2.45;;;;;;;;;;5011397;28;20591;-50
2022/02/24 07:25:56;;;;;;;12.57;3.72;;;;;;;;;;5010408;28;20036;-51
2022/02/24 07:28:23;;;;;;;13.63;2.97;;;;;;;;;;5011083;28;20899;-50
2022/02/24 07:30:49;;;;;;;14.80;3.38;;;;;;;;;;5011428;28;20041;-50
2022/02/24 07:33:16;;;;;;;11.20;3.25;;;;;;;;;;5011293;28;20034;-45
2022/02/24 07:35:42;;;;;;;17.65;4.03;;;;;;;;;;5011189;28;20025;-46
2022/02/24 07:38:08;;;;;;;13.35;2.72;;;;;;;;;;5010801;28;20060;-51
2022/02/24 07:40:34;;;;;;;14.23;3.63;;;;;;;;;;5010808;28;20109;-48
2022/02/24 07:43:00;;;;;;;12.82;3.13;;;;;;;;;;5011060;28;20022;-49
2022/02/24 07:45:26;;;;;;;11.75;2.90;;;;;;;;;;5010648;28;20045;-47
2022/02/24 07:47:52;;;;;;;13.93;2.55;;;;;;;;;;5011158;28;20109;-44
2022/02/24 07:50:18;;;;;;;11.50;2.60;;;;;;;;;;5011007;28;20052;-47
2022/02/24 07:52:44;;;;;;;10.45;2.45;;;;;;;;;;5011714;28;20373;-50
2022/02/24 07:55:11;;;;;;;15.90;3.72;;;;;;;;;;5011843;28;20033;-51
2022/02/24 07:57:38;;;;;;;12.13;3.50;;;;;;;;;;5011355;28;20033;-48
2022/02/24 08:00:05;;;;;;;11.30;3.03;;;;;;;;;;5012345;28;20117;-51
2022/02/24 08:02:31;;;;;;;14.73;3.10;;;;;;;;;;5010943;28;20050;-46
2022/02/24 08:04:57;;;;;;;8.48;2.58;;;;;;;;;;5011463;28;20052;-47
2022/02/24 08:07:23;;;;;;;13.65;2.78;;;;;;;;;;5010283;28;20057;-53
2022/02/24 08:09:49;;;;;;;15.75;4.38;;;;;;;;;;5010395;28;20492;-51
2022/02/24 08:14:59;;;;;;;13.93;3.50;;;;;;;;;;5009487;28;20041;-52
2022/02/24 08:17:25;;;;;;;13.15;2.40;;;;;;;;;;5010569;28;20690;-51
2022/02/24 08:19:51;;;;;;;9.95;2.20;;;;;;;;;;5010775;28;20034;-48
2022/02/24 08:22:18;;;;;;;18.70;2.95;;;;;;;;;;5010621;28;20018;-48
2022/02/24 08:24:44;;;;;;;14.23;3.25;;;;;;;;;;5011271;28;20097;-47
2022/02/24 08:27:10;;;;;;;10.40;2.40;;;;;;;;;;5010722;28;20026;-48
2022/02/24 08:29:36;;;;;;;11.32;2.60;;;;;;;;;;5011176;28;20539;-47
2022/02/24 08:32:02;;;;;;;13.25;2.42;;;;;;;;;;5008377;28;20033;-50
2022/02/24 08:34:28;;;;;;;13.68;2.38;;;;;;;;;;5006772;28;20117;-49
2022/02/24 08:36:55;;;;;;;11.52;2.55;;;;;;;;;;5005483;28;20145;-46
2022/02/24 08:39:23;;;;;;;11.43;2.60;;;;;;;;;;5010566;28;20044;-51
2022/02/24 08:41:49;;;;;;;10.18;2.80;;;;;;;;;;5010792;28;20077;-44
2022/02/24 08:44:16;;;;;;;13.80;2.65;;;;;;;;;;5010430;28;20030;-48
2022/02/24 08:46:42;;;;;;;11.15;2.42;;;;;;;;;;5010390;28;20032;-44
2022/02/24 08:49:09;;;;;;;9.13;2.00;;;;;;;;;;5009926;28;20461;-50
2022/02/24 08:51:35;;;;;;;11.43;2.22;;;;;;;;;;5010942;28;20072;-43
2022/02/24 08:54:01;;;;;;;11.05;2.03;;;;;;;;;;5010363;28;20045;-49
2022/02/24 08:56:27;;;;;;;9.45;2.35;;;;;;;;;;5008955;28;20034;-46
2022/02/24 08:58:53;;;;;;;6.93;1.98;;;;;;;;;;5008339;28;20057;-44
2022/02/24 09:01:19;;;;;;;9.07;2.33;;;;;;;;;;5008823;28;20441;-49
2022/02/24 09:03:45;;;;;;;9.55;1.92;;;;;;;;;;5007646;28;20054;-44
2022/02/24 09:06:12;;;;;;;9.55;3.78;;;;;;;;;;5007974;28;20280;-50
2022/02/24 09:08:38;;;;;;;8.23;2.15;;;;;;;;;;5008470;28;20121;-49
2022/02/24 09:11:04;;;;;;;12.38;2.08;;;;;;;;;;5009855;28;20575;-47
2022/02/24 09:13:30;;;;;;;10.38;2.15;;;;;;;;;;5010022;28;20068;-44
2022/02/24 09:15:56;;;;;;;7.82;1.60;;;;;;;;;;5009419;28;20030;-50
2022/02/24 09:18:22;;;;;;;15.68;2.78;;;;;;;;;;5009680;28;20036;-45
2022/02/24 09:20:48;;;;;;;7.15;1.70;;;;;;;;;;5008867;28;20058;-48
2022/02/24 09:23:14;;;;;;;9.02;1.90;;;;;;;;;;5009574;28;20032;-46
2022/02/24 09:25:40;;;;;;;8.63;1.92;;;;;;;;;;5009571;28;20396;-45
2022/02/24 09:28:06;;;;;;;9.45;2.03;;;;;;;;;;5010031;28;20124;-46
2022/02/24 09:30:32;;;;;;;10.57;1.98;;;;;;;;;;5009977;28;20113;-44
2022/02/24 09:33:00;;;;;;;7.15;1.90;;;;;;;;;;5010065;28;20494;-43
2022/02/24 09:35:26;;;;;;;7.38;2.20;;;;;;;;;;5008474;28;20160;-43
2022/02/24 09:37:52;;;;;;;14.07;2.38;;;;;;;;;;5008828;28;20030;-47
2022/02/24 09:40:18;;;;;;;11.80;2.40;;;;;;;;;;5008615;28;20156;-45
2022/02/24 09:42:44;;;;;;;9.55;2.28;;;;;;;;;;5008986;28;20408;-46
2022/02/24 09:45:12;;;;;;;16.05;2.05;;;;;;;;;;5009008;28;20884;-50
2022/02/24 09:47:39;;;;;;;13.57;2.47;;;;;;;;;;5007711;28;20484;-47
2022/02/24 09:50:06;;;;;;;14.63;2.28;;;;;;;;;;5008857;28;20018;-48
2022/02/24 09:52:33;;;;;;;8.68;2.10;;;;;;;;;;5008732;28;20497;-44
2022/02/24 09:55:00;;;;;;;17.80;4.32;;;;;;;;;;5008227;28;20158;-49
2022/02/24 09:57:26;;;;;;;32.38;7.45;;;;;;;;;;5008231;28;20034;-51
2022/02/24 09:59:52;;;;;;;26.73;6.80;;;;;;;;;;5008349;28;20538;-45
2022/02/24 10:02:18;;;;;;;21.38;6.15;;;;;;;;;;5007919;28;20032;-46
2022/02/24 10:05:23;;;;;;;22.00;5.43;;;;;;;;;;5008187;28;20164;-46
2022/02/24 10:07:49;;;;;;;16.98;4.40;;;;;;;;;;4958735;28;20027;-44
2022/02/24 10:10:22;;;;;;;17.83;5.05;;;;;;;;;;4948563;28;20030;-46
2022/02/24 10:13:08;;;;;;;26.55;5.57;;;;;;;;;;4984168;28;20030;-50
2022/02/24 10:15:35;;;;;;;16.42;5.20;;;;;;;;;;5007881;28;20060;-44
2022/02/24 10:18:09;;;;;;;17.55;4.68;;;;;;;;;;5007608;28;20030;-44
2022/02/24 10:20:36;;;;;;;16.55;3.88;;;;;;;;;;5007962;28;20042;-46
2022/02/24 10:23:02;;;;;;;14.20;4.20;;;;;;;;;;5007610;28;20108;-49
2022/02/24 10:25:28;;;;;;;21.25;4.35;;;;;;;;;;5007993;28;20037;-44
2022/02/24 10:27:54;;;;;;;18.73;5.60;;;;;;;;;;5007149;28;20025;-44
2022/02/24 10:30:20;;;;;;;18.73;4.00;;;;;;;;;;5008229;28;20936;-43
2022/02/24 10:32:49;;;;;;;19.23;4.32;;;;;;;;;;5007885;28;20547;-42
2022/02/24 10:35:24;;;;;;;13.60;4.20;;;;;;;;;;5008081;28;20096;-43
2022/02/24 10:37:55;;;;;;;17.83;3.92;;;;;;;;;;5007373;28;20075;-43
2022/02/24 10:40:21;;;;;;;15.52;3.50;;;;;;;;;;5011858;28;20081;-44
2022/02/24 10:42:47;;;;;;;14.93;4.10;;;;;;;;;;5012251;28;20030;-43
2022/02/24 10:45:16;;;;;;;14.07;3.20;;;;;;;;;;5011762;28;20901;-45
2022/02/24 10:47:56;;;;;;;11.35;3.50;;;;;;;;;;5011609;28;20033;-42
2022/02/24 10:50:42;;;;;;;10.07;2.97;;;;;;;;;;5011835;28;20057;-43
2022/02/24 10:53:08;;;;;;;13.98;2.97;;;;;;;;;;5010881;28;20040;-47
2022/02/24 10:55:52;;;;;;;12.13;3.50;;;;;;;;;;5010963;28;20030;-47
2022/02/24 10:58:18;;;;;;;10.65;2.88;;;;;;;;;;5011371;28;20462;-45
2022/02/24 11:00:44;;;;;;;15.02;3.70;;;;;;;;;;5011583;28;20033;-49
2022/02/24 11:03:11;;;;;;;9.40;2.55;;;;;;;;;;5011100;28;20475;-47
2022/02/24 11:05:38;;;;;;;6.72;2.45;;;;;;;;;;5011406;28;20130;-43
2022/02/24 11:08:05;;;;;;;13.00;3.17;;;;;;;;;;5011250;28;20120;-43
2022/02/24 11:10:31;;;;;;;11.98;2.70;;;;;;;;;;5011764;28;20034;-43
2022/02/24 11:12:57;;;;;;;13.13;2.95;;;;;;;;;;5010855;28;20101;-42
2022/02/24 11:15:24;;;;;;;10.38;3.22;;;;;;;;;;5011402;28;20038;-44
2022/02/24 11:17:50;;;;;;;10.18;2.67;;;;;;;;;;5011213;28;20014;-43
2022/02/24 11:20:16;;;;;;;10.45;3.03;;;;;;;;;;5011336;28;20042;-45
2022/02/24 11:22:42;;;;;;;11.20;3.45;;;;;;;;;;5011212;28;20038;-48
2022/02/24 11:25:11;;;;;;;8.68;2.83;;;;;;;;;;5011070;28;20040;-45
2022/02/24 11:27:42;;;;;;;13.68;3.25;;;;;;;;;;5009423;28;20571;-46
2022/02/24 11:30:25;;;;;;;8.23;2.38;;;;;;;;;;5007845;28;20128;-43
2022/02/24 11:32:51;;;;;;;12.60;2.47;;;;;;;;;;4999923;28;20030;-41
2022/02/24 11:35:18;;;;;;;13.80;2.97;;;;;;;;;;5010308;28;20101;-45
2022/02/24 11:37:45;;;;;;;18.25;3.35;;;;;;;;;;5011143;28;20037;-42
2022/02/24 11:40:11;;;;;;;19.95;4.22;;;;;;;;;;5010654;28;20038;-45
2022/02/24 11:42:39;;;;;;;10.38;2.22;;;;;;;;;;5010344;28;20032;-42
2022/02/24 11:45:31;;;;;;;12.38;2.55;;;;;;;;;;5010632;28;20018;-49
2022/02/24 11:48:05;;;;;;;11.85;2.28;;;;;;;;;;4975397;28;20089;-43
2022/02/24 11:50:41;;;;;;;12.50;2.60;;;;;;;;;;5008279;28;20084;-47
2022/02/24 11:53:29;;;;;;;16.02;3.15;;;;;;;;;;5010708;28;20033;-44
2022/02/24 11:55:56;;;;;;;11.40;2.92;;;;;;;;;;5010258;28;20080;-49
2022/02/24 11:58:36;;;;;;;12.18;2.65;;;;;;;;;;5010505;28;20084;-48
2022/02/24 12:01:05;;;;;;;11.90;2.53;;;;;;;;;;5009382;28;20030;-48
2022/02/24 12:03:46;;;;;;;10.20;2.17;;;;;;;;;;5010131;28;20141;-46
2022/02/24 12:06:13;;;;;;;8.10;1.60;;;;;;;;;;5009716;28;20048;-45
2022/02/24 12:08:58;;;;;;;7.50;2.28;;;;;;;;;;5008886;28;20121;-46
2022/02/24 12:11:30;;;;;;;9.25;2.42;;;;;;;;;;5009082;28;20026;-49
2022/02/24 12:13:57;;;;;;;12.57;2.13;;;;;;;;;;5025171;28;20037;-44
2022/02/24 12:16:26;;;;;;;11.85;2.00;;;;;;;;;;5009935;28;20475;-44
2022/02/24 12:18:53;;;;;;;8.23;1.83;;;;;;;;;;5010205;28;20583;-43
2022/02/24 12:21:29;;;;;;;8.00;1.77;;;;;;;;;;5009400;28;20065;-42
2022/02/24 12:23:56;;;;;;;8.43;2.53;;;;;;;;;;5009934;28;20069;-42
2022/02/24 12:26:40;;;;;;;9.98;2.10;;;;;;;;;;5009425;28;20144;-44
2022/02/24 12:29:26;;;;;;;9.73;2.25;;;;;;;;;;5010530;28;20080;-44
2022/02/24 12:31:57;;;;;;;10.55;2.65;;;;;;;;;;5010168;28;20519;-43
2022/02/24 12:34:23;;;;;;;6.80;2.17;;;;;;;;;;5010045;28;20030;-43
2022/02/24 12:36:49;;;;;;;11.57;1.90;;;;;;;;;;5009120;28;20067;-43
2022/02/24 12:39:15;;;;;;;12.50;2.53;;;;;;;;;;5009040;28;20084;-42
2022/02/24 12:41:43;;;;;;;9.25;1.83;;;;;;;;;;5009217;28;20025;-43
2022/02/24 12:44:25;;;;;;;7.88;1.95;;;;;;;;;;5009797;28;20041;-43
2022/02/24 12:46:52;;;;;;;9.48;1.90;;;;;;;;;;5009357;28;20033;-42
2022/02/24 12:49:19;;;;;;;7.93;1.73;;;;;;;;;;5008689;28;20480;-45
2022/02/24 12:51:45;;;;;;;7.18;1.58;;;;;;;;;;5008413;28;20177;-45
2022/02/24 12:54:12;;;;;;;11.57;2.03;;;;;;;;;;5007548;28;20449;-41
2022/02/24 12:56:38;;;;;;;8.43;1.33;;;;;;;;;;5008634;28;20037;-47
2022/02/24 12:59:11;;;;;;;10.30;2.30;;;;;;;;;;5008484;28;20052;-47
2022/02/24 13:01:38;;;;;;;9.32;1.83;;;;;;;;;;5007371;28;20044;-44
2022/02/24 13:04:15;;;;;;;7.40;1.70;;;;;;;;;;5008370;28;20116;-47
2022/02/24 13:06:44;;;;;;;6.85;1.42;;;;;;;;;;5003046;28;20104;-48
2022/02/24 13:12:03;;;;;;;5.20;1.48;;;;;;;;;;5008335;28;21473;-44
2022/02/24 13:14:30;;;;;;;8.63;1.40;;;;;;;;;;5008105;28;20021;-45
2022/02/24 13:16:57;;;;;;;8.55;1.63;;;;;;;;;;5008555;28;20400;-45
2022/02/24 13:19:23;;;;;;;4.40;1.50;;;;;;;;;;5008531;28;20044;-46
2022/02/24 13:22:08;;;;;;;6.22;1.40;;;;;;;;;;5008133;28;20038;-45
2022/02/24 13:24:40;;;;;;;6.40;1.35;;;;;;;;;;5007937;28;20053;-49
2022/02/24 13:27:07;;;;;;;8.52;1.83;;;;;;;;;;5007818;28;20021;-46
2022/02/24 13:29:33;;;;;;;7.28;1.75;;;;;;;;;;5007524;28;20030;-42
2022/02/24 13:32:22;;;;;;;4.68;1.55;;;;;;;;;;5007667;28;20029;-44
2022/02/24 13:34:56;;;;;;;5.50;1.52;;;;;;;;;;5007785;28;20112;-45
2022/02/24 13:37:32;;;;;;;4.85;1.40;;;;;;;;;;5007514;28;20029;-42
2022/02/24 13:40:14;;;;;;;8.95;1.60;;;;;;;;;;5007779;28;20046;-45
2022/02/24 13:42:40;;;;;;;9.00;1.95;;;;;;;;;;5005595;28;20030;-46
2022/02/24 13:45:09;;;;;;;7.10;1.45;;;;;;;;;;5007721;28;20034;-47
2022/02/24 13:47:35;;;;;;;5.43;1.10;;;;;;;;;;5004952;28;20026;-46
2022/02/24 13:50:03;;;;;;;5.85;1.58;;;;;;;;;;5007347;28;20865;-46
2022/02/24 13:52:32;;;;;;;3.72;1.15;;;;;;;;;;5007278;28;20026;-48
2022/02/24 13:55:05;;;;;;;5.65;1.50;;;;;;;;;;5007279;28;20025;-47
2022/02/24 13:57:31;;;;;;;5.40;1.67;;;;;;;;;;5007575;28;20101;-48
2022/02/24 14:00:03;;;;;;;5.43;1.50;;;;;;;;;;5004973;28;20417;-47
2022/02/24 14:02:31;;;;;;;6.63;2.47;;;;;;;;;;4993101;28;20050;-45
2022/02/24 14:04:57;;;;;;;6.93;2.33;;;;;;;;;;4998568;28;20030;-42
2022/02/24 14:07:30;;;;;;;5.13;1.65;;;;;;;;;;4995314;28;20121;-46
2022/02/24 14:10:00;;;;;;;4.47;1.70;;;;;;;;;;4994832;28;20034;-43
2022/02/24 14:12:26;;;;;;;9.32;2.05;;;;;;;;;;4995894;28;20080;-46
2022/02/24 14:14:52;;;;;;;5.20;1.45;;;;;;;;;;4998565;28;21725;-45
2022/02/24 14:17:19;;;;;;;4.20;1.50;;;;;;;;;;4996484;28;20442;-44
2022/02/24 14:19:46;;;;;;;6.93;1.75;;;;;;;;;;4994337;28;20049;-44
2022/02/24 14:22:12;;;;;;;9.40;1.80;;;;;;;;;;4993877;28;20038;-46
2022/02/24 14:24:38;;;;;;;5.00;1.95;;;;;;;;;;4994969;28;20682;-42
2022/02/24 14:27:04;;;;;;;8.48;2.00;;;;;;;;;;4997131;28;20025;-46
2022/02/24 14:29:30;;;;;;;8.68;2.30;;;;;;;;;;4993928;28;20040;-43
2022/02/24 14:31:56;;;;;;;6.40;2.05;;;;;;;;;;5000360;28;20128;-42
2022/02/24 14:34:22;;;;;;;8.07;2.17;;;;;;;;;;4997703;28;20199;-44
2022/02/24 14:36:48;;;;;;;7.43;2.13;;;;;;;;;;4995924;28;20529;-43
2022/02/24 14:39:14;;;;;;;6.40;1.60;;;;;;;;;;4995227;28;20100;-42
2022/02/24 14:41:41;;;;;;;7.20;1.40;;;;;;;;;;4996203;28;20033;-46
2022/02/24 14:44:07;;;;;;;5.38;1.73;;;;;;;;;;4994424;28;20041;-47
2022/02/24 14:46:33;;;;;;;6.60;1.33;;;;;;;;;;4994359;28;20030;-44